sensor_id;sensor_type;location;lat;lon;timestamp;temperature;humidity
5631;DHT22;2837;50.990;7.124;2022-11-30T06:00:43;9.90;99.90
5631;DHT22;2837;50.990;7.124;2022-11-30T06:03:09;9.80;99.90
5631;DHT22;2837;50.990;7.124;2022-11-30T06:05:34;9.90;99.90
5631;DHT22;2837;50.990;7.124;2022-11-30T06:08:00;9.90;99.90
5631;DHT22;2837;50.990;7.124;2022-11-30T06:10:26;9.90;99.90
5631;DHT22;2837;50.990;7.124;2022-11-30T06:12:52;10.00;99.90
5631;DHT22;2837;50.990;7.124;2022-11-30T06:15:17;10.00;99.90
5631;DHT22;2837;50.990;7.124;2022-11-30T06:17:43;9.90;99.90
5631;DHT22;2837;50.990;7.124;2022-11-30T06:20:08;9.90;99.90
5631;DHT22;2837;50.990;7.124;2022-11-30T06:22:34;9.90;99.90
5631;DHT22;2837;50.990;7.124;2022-11-30T06:25:00;9.90;99.90
5631;DHT22;2837;50.990;7.124;2022-11-30T06:27:29;9.90;99.90
5631;DHT22;2837;50.990;7.124;2022-11-30T06:29:55;9.90;99.90
5631;DHT22;2837;50.990;7.124;2022-11-30T06:32:21;10.00;99.90
5631;DHT22;2837;50.990;7.124;2022-11-30T06:34:46;10.00;99.90
5631;DHT22;2837;50.990;7.124;2022-11-30T06:37:12;10.00;99.90
5631;DHT22;2837;50.990;7.124;2022-11-30T06:39:37;9.90;99.90
5631;DHT22;2837;50.990;7.124;2022-11-30T06:42:03;9.90;99.90
5631;DHT22;2837;50.990;7.124;2022-11-30T06:44:29;10.00;99.90
5631;DHT22;2837;50.990;7.124;2022-11-30T06:46:54;10.00;99.90
5631;DHT22;2837;50.990;7.124;2022-11-30T06:49:20;9.90;99.90
5631;DHT22;2837;50.990;7.124;2022-11-30T06:51:45;9.80;99.90
5631;DHT22;2837;50.990;7.124;2022-11-30T06:54:11;9.80;99.90
5631;DHT22;2837;50.990;7.124;2022-11-30T06:56:36;9.80;99.90
5631;DHT22;2837;50.990;7.124;2022-11-30T06:59:02;9.80;99.90
5631;DHT22;2837;50.990;7.124;2022-11-30T07:01:28;9.80;99.90
5631;DHT22;2837;50.990;7.124;2022-11-30T07:03:53;9.70;99.90
5631;DHT22;2837;50.990;7.124;2022-11-30T07:06:19;9.70;99.90
5631;DHT22;2837;50.990;7.124;2022-11-30T07:08:44;9.60;99.90
5631;DHT22;2837;50.990;7.124;2022-11-30T07:11:11;9.60;99.90
5631;DHT22;2837;50.990;7.124;2022-11-30T07:13:37;9.50;99.90
5631;DHT22;2837;50.990;7.124;2022-11-30T07:16:07;9.60;99.90
5631;DHT22;2837;50.990;7.124;2022-11-30T07:18:34;9.50;99.90
5631;DHT22;2837;50.990;7.124;2022-11-30T07:21:01;9.50;99.90
5631;DHT22;2837;50.990;7.124;2022-11-30T07:23:27;9.50;99.90
5631;DHT22;2837;50.990;7.124;2022-11-30T07:26:12;9.50;99.90
5631;DHT22;2837;50.990;7.124;2022-11-30T07:28:40;9.50;99.90
5631;DHT22;2837;50.990;7.124;2022-11-30T07:31:13;9.50;99.90
5631;DHT22;2837;50.990;7.124;2022-11-30T07:33:39;9.60;99.90
5631;DHT22;2837;50.990;7.124;2022-11-30T07:36:05;9.70;99.90
5631;DHT22;2837;50.990;7.124;2022-11-30T07:38:31;9.60;99.90
5631;DHT22;2837;50.990;7.124;2022-11-30T07:40:57;9.60;99.90
5631;DHT22;2837;50.990;7.124;2022-11-30T07:43:22;9.60;99.90
5631;DHT22;2837;50.990;7.124;2022-11-30T07:45:52;9.60;99.90
5631;DHT22;2837;50.990;7.124;2022-11-30T07:48:18;9.70;99.90
5631;DHT22;2837;50.990;7.124;2022-11-30T07:50:43;9.70;99.90
5631;DHT22;2837;50.990;7.124;2022-11-30T07:53:09;9.70;99.90
5631;DHT22;2837;50.990;7.124;2022-11-30T07:55:34;9.70;99.90
5631;DHT22;2837;50.990;7.124;2022-11-30T07:58:00;9.70;99.90
5631;DHT22;2837;50.990;7.124;2022-11-30T08:00:26;9.70;99.90
5631;DHT22;2837;50.990;7.124;2022-11-30T08:02:51;9.80;99.90
5631;DHT22;2837;50.990;7.124;2022-11-30T08:05:17;9.70;99.90
5631;DHT22;2837;50.990;7.124;2022-11-30T08:07:42;9.70;99.90
5631;DHT22;2837;50.990;7.124;2022-11-30T08:10:10;9.80;99.90
5631;DHT22;2837;50.990;7.124;2022-11-30T08:12:36;9.70;99.90
5631;DHT22;2837;50.990;7.124;2022-11-30T08:15:01;9.70;99.90
5631;DHT22;2837;50.990;7.124;2022-11-30T08:17:27;9.70;99.90
5631;DHT22;2837;50.990;7.124;2022-11-30T08:19:52;9.70;99.90
5631;DHT22;2837;50.990;7.124;2022-11-30T08:22:18;9.60;99.90
5631;DHT22;2837;50.990;7.124;2022-11-30T08:24:43;9.70;99.90
5631;DHT22;2837;50.990;7.124;2022-11-30T08:27:09;9.70;99.90
5631;DHT22;2837;50.990;7.124;2022-11-30T08:29:34;9.70;99.90
5631;DHT22;2837;50.990;7.124;2022-11-30T08:32:00;9.60;99.90
5631;DHT22;2837;50.990;7.124;2022-11-30T08:34:25;9.70;99.90
5631;DHT22;2837;50.990;7.124;2022-11-30T08:36:51;9.70;99.90
5631;DHT22;2837;50.990;7.124;2022-11-30T08:39:17;9.60;99.90
5631;DHT22;2837;50.990;7.124;2022-11-30T08:41:42;9.70;99.90
5631;DHT22;2837;50.990;7.124;2022-11-30T08:44:08;9.70;99.90
5631;DHT22;2837;50.990;7.124;2022-11-30T08:46:34;9.70;99.90
5631;DHT22;2837;50.990;7.124;2022-11-30T08:48:59;9.70;99.90
5631;DHT22;2837;50.990;7.124;2022-11-30T08:51:25;9.70;99.90
5631;DHT22;2837;50.990;7.124;2022-11-30T08:53:50;9.70;99.90
5631;DHT22;2837;50.990;7.124;2022-11-30T08:56:18;9.80;99.90
5631;DHT22;2837;50.990;7.124;2022-11-30T08:58:45;9.80;99.90
5631;DHT22;2837;50.990;7.124;2022-11-30T09:01:22;9.80;99.90
5631;DHT22;2837;50.990;7.124;2022-11-30T09:03:50;9.80;99.90
5631;DHT22;2837;50.990;7.124;2022-11-30T09:06:19;9.70;99.90
5631;DHT22;2837;50.990;7.124;2022-11-30T09:08:46;9.70;99.90
5631;DHT22;2837;50.990;7.124;2022-11-30T09:11:27;9.70;99.90
5631;DHT22;2837;50.990;7.124;2022-11-30T09:13:54;9.80;99.90
5631;DHT22;2837;50.990;7.124;2022-11-30T09:16:20;9.70;99.90
5631;DHT22;2837;50.990;7.124;2022-11-30T09:18:47;9.80;99.90
5631;DHT22;2837;50.990;7.124;2022-11-30T09:21:15;9.80;99.90
5631;DHT22;2837;50.990;7.124;2022-11-30T09:23:41;9.90;99.90
5631;DHT22;2837;50.990;7.124;2022-11-30T09:26:09;9.90;99.90
5631;DHT22;2837;50.990;7.124;2022-11-30T09:28:36;9.90;99.90
5631;DHT22;2837;50.990;7.124;2022-11-30T09:31:07;9.80;99.90
5631;DHT22;2837;50.990;7.124;2022-11-30T09:33:34;9.80;99.90
5631;DHT22;2837;50.990;7.124;2022-11-30T09:36:03;9.80;99.90
5631;DHT22;2837;50.990;7.124;2022-11-30T09:38:30;9.70;99.90
5631;DHT22;2837;50.990;7.124;2022-11-30T09:40:57;9.80;99.90
5631;DHT22;2837;50.990;7.124;2022-11-30T09:46:04;9.70;99.90
5631;DHT22;2837;50.990;7.124;2022-11-30T09:49:04;9.70;99.90
5631;DHT22;2837;50.990;7.124;2022-11-30T09:51:46;9.80;99.90
5631;DHT22;2837;50.990;7.124;2022-11-30T09:54:16;9.80;99.90
5631;DHT22;2837;50.990;7.124;2022-11-30T09:56:45;9.80;99.90
5631;DHT22;2837;50.990;7.124;2022-11-30T09:59:22;9.70;99.90
5631;DHT22;2837;50.990;7.124;2022-11-30T10:01:55;9.80;99.90
5631;DHT22;2837;50.990;7.124;2022-11-30T10:04:27;9.70;99.90
5631;DHT22;2837;50.990;7.124;2022-11-30T10:07:13;9.70;99.90
5631;DHT22;2837;50.990;7.124;2022-11-30T10:09:46;9.70;99.90
5631;DHT22;2837;50.990;7.124;2022-11-30T10:17:55;9.70;99.90
5631;DHT22;2837;50.990;7.124;2022-11-30T10:23:35;9.70;99.90
5631;DHT22;2837;50.990;7.124;2022-11-30T10:26:27;9.60;99.90
5631;DHT22;2837;50.990;7.124;2022-11-30T10:29:01;9.70;99.90
5631;DHT22;2837;50.990;7.124;2022-11-30T10:31:34;9.60;99.90
5631;DHT22;2837;50.990;7.124;2022-11-30T10:34:19;9.60;99.90
5631;DHT22;2837;50.990;7.124;2022-11-30T10:36:53;9.70;99.90
5631;DHT22;2837;50.990;7.124;2022-11-30T10:39:38;9.70;99.90
5631;DHT22;2837;50.990;7.124;2022-11-30T10:42:23;9.70;99.90
5631;DHT22;2837;50.990;7.124;2022-11-30T10:44:59;9.70;99.90
5631;DHT22;2837;50.990;7.124;2022-11-30T10:47:30;9.60;99.90
5631;DHT22;2837;50.990;7.124;2022-11-30T10:49:58;9.60;99.90
5631;DHT22;2837;50.990;7.124;2022-11-30T10:52:37;9.60;99.90
5631;DHT22;2837;50.990;7.124;2022-11-30T10:55:19;9.60;99.90
5631;DHT22;2837;50.990;7.124;2022-11-30T10:57:48;9.70;99.90
5631;DHT22;2837;50.990;7.124;2022-11-30T11:00:14;9.70;99.90
5631;DHT22;2837;50.990;7.124;2022-11-30T11:02:47;9.70;99.90
5631;DHT22;2837;50.990;7.124;2022-11-30T11:05:25;9.70;99.90
5631;DHT22;2837;50.990;7.124;2022-11-30T11:10:44;9.70;99.90
5631;DHT22;2837;50.990;7.124;2022-11-30T11:13:34;9.70;99.90
5631;DHT22;2837;50.990;7.124;2022-11-30T11:16:01;9.80;99.90
5631;DHT22;2837;50.990;7.124;2022-11-30T11:18:28;9.70;99.90
5631;DHT22;2837;50.990;7.124;2022-11-30T11:21:19;9.80;99.90
5631;DHT22;2837;50.990;7.124;2022-11-30T11:23:46;9.70;99.90
5631;DHT22;2837;50.990;7.124;2022-11-30T11:26:22;9.70;99.90
5631;DHT22;2837;50.990;7.124;2022-11-30T11:28:50;9.70;99.90
5631;DHT22;2837;50.990;7.124;2022-11-30T11:33:53;9.80;99.90
5631;DHT22;2837;50.990;7.124;2022-11-30T11:36:25;9.70;99.90
5631;DHT22;2837;50.990;7.124;2022-11-30T11:38:51;9.70;99.90
5631;DHT22;2837;50.990;7.124;2022-11-30T11:41:29;9.70;99.90
5631;DHT22;2837;50.990;7.124;2022-11-30T11:46:38;9.80;99.90
5631;DHT22;2837;50.990;7.124;2022-11-30T11:49:22;9.80;99.90
5631;DHT22;2837;50.990;7.124;2022-11-30T11:52:02;9.80;99.90
5631;DHT22;2837;50.990;7.124;2022-11-30T11:54:39;9.80;99.90
5631;DHT22;2837;50.990;7.124;2022-11-30T11:57:15;9.90;99.90
5631;DHT22;2837;50.990;7.124;2022-11-30T12:00:14;9.90;99.90
5631;DHT22;2837;50.990;7.124;2022-11-30T12:03:18;9.90;99.90
5631;DHT22;2837;50.990;7.124;2022-11-30T12:05:55;9.90;99.90
5631;DHT22;2837;50.990;7.124;2022-11-30T12:08:40;9.90;99.90
5631;DHT22;2837;50.990;7.124;2022-11-30T12:11:25;9.90;99.90
5631;DHT22;2837;50.990;7.124;2022-11-30T12:13:53;9.90;99.90
5631;DHT22;2837;50.990;7.124;2022-11-30T12:16:36;9.90;99.90
5631;DHT22;2837;50.990;7.124;2022-11-30T12:19:25;10.00;99.90
5631;DHT22;2837;50.990;7.124;2022-11-30T12:22:25;9.90;99.90
5631;DHT22;2837;50.990;7.124;2022-11-30T12:25:17;9.90;99.90
5631;DHT22;2837;50.990;7.124;2022-11-30T12:28:18;9.80;99.90
5631;DHT22;2837;50.990;7.124;2022-11-30T12:33:48;9.80;99.90
5631;DHT22;2837;50.990;7.124;2022-11-30T12:36:29;9.80;99.90
5631;DHT22;2837;50.990;7.124;2022-11-30T12:39:00;9.70;99.90
5631;DHT22;2837;50.990;7.124;2022-11-30T12:46:52;9.90;99.90
5631;DHT22;2837;50.990;7.124;2022-11-30T12:54:55;9.80;99.90
5631;DHT22;2837;50.990;7.124;2022-11-30T13:00:28;9.80;99.90
5631;DHT22;2837;50.990;7.124;2022-11-30T13:05:49;9.80;99.90
5631;DHT22;2837;50.990;7.124;2022-11-30T13:10:44;9.80;99.90
5631;DHT22;2837;50.990;7.124;2022-11-30T13:13:28;9.80;99.90
5631;DHT22;2837;50.990;7.124;2022-11-30T13:15:54;9.80;99.90
5631;DHT22;2837;50.990;7.124;2022-11-30T13:18:22;9.80;99.90
5631;DHT22;2837;50.990;7.124;2022-11-30T13:20:54;9.80;99.90
5631;DHT22;2837;50.990;7.124;2022-11-30T13:28:45;9.80;99.90
5631;DHT22;2837;50.990;7.124;2022-11-30T13:31:23;9.80;99.90
5631;DHT22;2837;50.990;7.124;2022-11-30T13:36:37;9.80;99.90
5631;DHT22;2837;50.990;7.124;2022-11-30T13:41:40;9.90;99.90
5631;DHT22;2837;50.990;7.124;2022-11-30T13:44:38;9.90;99.90
5631;DHT22;2837;50.990;7.124;2022-11-30T13:47:19;9.90;99.90
5631;DHT22;2837;50.990;7.124;2022-11-30T13:49:59;9.90;99.90
5631;DHT22;2837;50.990;7.124;2022-11-30T14:02:59;9.90;99.90
5631;DHT22;2837;50.990;7.124;2022-11-30T14:06:00;9.90;99.90
5631;DHT22;2837;50.990;7.124;2022-11-30T14:08:32;9.90;99.90
5631;DHT22;2837;50.990;7.124;2022-11-30T14:13:41;9.90;99.90
5631;DHT22;2837;50.990;7.124;2022-11-30T14:16:23;9.80;99.90
5631;DHT22;2837;50.990;7.124;2022-11-30T14:18:50;9.80;99.90
5631;DHT22;2837;50.990;7.124;2022-11-30T14:21:21;9.90;99.90
5631;DHT22;2837;50.990;7.124;2022-11-30T14:24:11;9.80;99.90
5631;DHT22;2837;50.990;7.124;2022-11-30T14:26:43;9.80;99.90
5631;DHT22;2837;50.990;7.124;2022-11-30T14:29:17;9.80;99.90
5631;DHT22;2837;50.990;7.124;2022-11-30T14:34:30;9.80;99.90
5631;DHT22;2837;50.990;7.124;2022-11-30T14:37:02;9.90;99.90
5631;DHT22;2837;50.990;7.124;2022-11-30T14:39:35;9.90;99.90
5631;DHT22;2837;50.990;7.124;2022-11-30T14:42:03;9.90;99.90
5631;DHT22;2837;50.990;7.124;2022-11-30T14:44:38;10.00;99.90
5631;DHT22;2837;50.990;7.124;2022-11-30T14:47:14;10.00;99.90
5631;DHT22;2837;50.990;7.124;2022-11-30T14:49:47;9.90;99.90
5631;DHT22;2837;50.990;7.124;2022-11-30T14:52:22;9.90;99.90
5631;DHT22;2837;50.990;7.124;2022-11-30T14:57:48;9.80;99.90
5631;DHT22;2837;50.990;7.124;2022-11-30T15:00:17;9.80;99.90
5631;DHT22;2837;50.990;7.124;2022-11-30T15:02:44;9.90;99.90
5631;DHT22;2837;50.990;7.124;2022-11-30T15:05:22;10.00;99.90
5631;DHT22;2837;50.990;7.124;2022-11-30T15:07:51;9.80;99.90
5631;DHT22;2837;50.990;7.124;2022-11-30T15:10:29;9.80;99.90
5631;DHT22;2837;50.990;7.124;2022-11-30T15:12:56;9.80;99.90
5631;DHT22;2837;50.990;7.124;2022-11-30T15:15:24;9.80;99.90
5631;DHT22;2837;50.990;7.124;2022-11-30T15:20:57;9.70;99.90
5631;DHT22;2837;50.990;7.124;2022-11-30T15:23:16;9.70;99.90
5631;DHT22;2837;50.990;7.124;2022-11-30T15:25:48;9.80;99.90
5631;DHT22;2837;50.990;7.124;2022-11-30T15:28:22;9.80;99.90
5631;DHT22;2837;50.990;7.124;2022-11-30T15:30:52;9.90;99.90
5631;DHT22;2837;50.990;7.124;2022-11-30T15:33:20;9.90;99.90
5631;DHT22;2837;50.990;7.124;2022-11-30T15:35:49;9.90;99.90
5631;DHT22;2837;50.990;7.124;2022-11-30T15:38:18;9.80;99.90
5631;DHT22;2837;50.990;7.124;2022-11-30T15:40:45;9.80;99.90
5631;DHT22;2837;50.990;7.124;2022-11-30T15:43:20;9.90;99.90
5631;DHT22;2837;50.990;7.124;2022-11-30T15:45:57;9.80;99.90
5631;DHT22;2837;50.990;7.124;2022-11-30T15:50:54;9.70;99.90
5631;DHT22;2837;50.990;7.124;2022-11-30T15:53:32;9.70;99.90
5631;DHT22;2837;50.990;7.124;2022-11-30T15:55:58;9.70;99.90
5631;DHT22;2837;50.990;7.124;2022-11-30T15:58:31;9.70;99.90
5631;DHT22;2837;50.990;7.124;2022-11-30T16:00:59;9.70;99.90
5631;DHT22;2837;50.990;7.124;2022-11-30T16:03:24;9.80;99.90
5631;DHT22;2837;50.990;7.124;2022-11-30T16:05:57;9.70;99.90
5631;DHT22;2837;50.990;7.124;2022-11-30T16:08:23;9.70;99.90
5631;DHT22;2837;50.990;7.124;2022-11-30T16:10:49;9.80;99.90
5631;DHT22;2837;50.990;7.124;2022-11-30T16:13:16;9.80;99.90
5631;DHT22;2837;50.990;7.124;2022-11-30T16:15:45;9.70;99.90
5631;DHT22;2837;50.990;7.124;2022-11-30T16:18:25;9.80;99.90
5631;DHT22;2837;50.990;7.124;2022-11-30T16:20:54;9.90;99.90
5631;DHT22;2837;50.990;7.124;2022-11-30T16:23:20;9.90;99.90
5631;DHT22;2837;50.990;7.124;2022-11-30T16:25:47;9.90;99.90
5631;DHT22;2837;50.990;7.124;2022-11-30T16:28:14;9.80;99.90
5631;DHT22;2837;50.990;7.124;2022-11-30T16:30:41;9.80;99.90
5631;DHT22;2837;50.990;7.124;2022-11-30T16:33:18;9.80;99.90
5631;DHT22;2837;50.990;7.124;2022-11-30T16:35:59;9.80;99.90
5631;DHT22;2837;50.990;7.124;2022-11-30T16:38:27;9.80;99.90
5631;DHT22;2837;50.990;7.124;2022-11-30T16:40:53;9.70;99.90
5631;DHT22;2837;50.990;7.124;2022-11-30T16:43:23;9.70;99.90
5631;DHT22;2837;50.990;7.124;2022-11-30T16:45:50;9.70;99.90
5631;DHT22;2837;50.990;7.124;2022-11-30T16:48:16;9.80;99.90
5631;DHT22;2837;50.990;7.124;2022-11-30T16:50:42;9.80;99.90
5631;DHT22;2837;50.990;7.124;2022-11-30T16:53:11;9.80;99.90
5631;DHT22;2837;50.990;7.124;2022-11-30T16:55:39;9.80;99.90
5631;DHT22;2837;50.990;7.124;2022-11-30T16:58:05;9.80;99.90
5631;DHT22;2837;50.990;7.124;2022-11-30T17:00:31;9.80;99.90
5631;DHT22;2837;50.990;7.124;2022-11-30T17:05:25;9.60;99.90
5631;DHT22;2837;50.990;7.124;2022-11-30T17:07:51;9.70;99.90
5631;DHT22;2837;50.990;7.124;2022-11-30T17:10:17;9.70;99.90
5631;DHT22;2837;50.990;7.124;2022-11-30T17:12:43;9.70;99.90
5631;DHT22;2837;50.990;7.124;2022-11-30T17:15:14;9.80;99.90
5631;DHT22;2837;50.990;7.124;2022-11-30T17:17:40;9.70;99.90
5631;DHT22;2837;50.990;7.124;2022-11-30T17:20:06;9.70;99.90
5631;DHT22;2837;50.990;7.124;2022-11-30T17:22:32;9.70;99.90
5631;DHT22;2837;50.990;7.124;2022-11-30T17:24:58;9.70;99.90
5631;DHT22;2837;50.990;7.124;2022-11-30T17:27:23;9.70;99.90
5631;DHT22;2837;50.990;7.124;2022-11-30T17:29:49;9.60;99.90
5631;DHT22;2837;50.990;7.124;2022-11-30T17:32:14;9.60;99.90
5631;DHT22;2837;50.990;7.124;2022-11-30T17:34:40;9.60;99.90
5631;DHT22;2837;50.990;7.124;2022-11-30T17:37:05;9.60;99.90
5631;DHT22;2837;50.990;7.124;2022-11-30T17:39:31;9.60;99.90
5631;DHT22;2837;50.990;7.124;2022-11-30T17:41:57;9.60;99.90
5631;DHT22;2837;50.990;7.124;2022-11-30T17:44:22;9.70;99.90
5631;DHT22;2837;50.990;7.124;2022-11-30T17:46:48;9.60;99.90
5631;DHT22;2837;50.990;7.124;2022-11-30T17:49:13;9.60;99.90
5631;DHT22;2837;50.990;7.124;2022-11-30T17:51:39;9.70;99.90
5631;DHT22;2837;50.990;7.124;2022-11-30T17:54:04;9.70;99.90
5631;DHT22;2837;50.990;7.124;2022-11-30T17:56:30;9.70;99.90
5631;DHT22;2837;50.990;7.124;2022-11-30T17:58:55;9.70;99.90
5631;DHT22;2837;50.990;7.124;2022-11-30T18:01:23;9.70;99.90
5631;DHT22;2837;50.990;7.124;2022-11-30T18:03:50;9.60;99.90
5631;DHT22;2837;50.990;7.124;2022-11-30T18:06:16;9.60;99.90
5631;DHT22;2837;50.990;7.124;2022-11-30T18:08:42;9.60;99.90
5631;DHT22;2837;50.990;7.124;2022-11-30T18:11:10;9.60;99.90
5631;DHT22;2837;50.990;7.124;2022-11-30T18:13:36;9.60;99.90
5631;DHT22;2837;50.990;7.124;2022-11-30T18:16:22;9.60;99.90
5631;DHT22;2837;50.990;7.124;2022-11-30T18:18:49;9.70;99.90
5631;DHT22;2837;50.990;7.124;2022-11-30T18:21:17;9.70;99.90
5631;DHT22;2837;50.990;7.124;2022-11-30T18:23:43;9.70;99.90
5631;DHT22;2837;50.990;7.124;2022-11-30T18:26:11;9.70;99.90
5631;DHT22;2837;50.990;7.124;2022-11-30T18:28:37;9.60;99.90
5631;DHT22;2837;50.990;7.124;2022-11-30T18:31:03;9.70;99.90
5631;DHT22;2837;50.990;7.124;2022-11-30T18:33:31;9.70;99.90
5631;DHT22;2837;50.990;7.124;2022-11-30T18:35:57;9.60;99.90
5631;DHT22;2837;50.990;7.124;2022-11-30T18:38:24;9.70;99.90
5631;DHT22;2837;50.990;7.124;2022-11-30T18:40:49;9.70;99.90
5631;DHT22;2837;50.990;7.124;2022-11-30T18:43:15;9.60;99.90
5631;DHT22;2837;50.990;7.124;2022-11-30T18:45:40;9.70;99.90
5631;DHT22;2837;50.990;7.124;2022-11-30T18:48:06;9.70;99.90
5631;DHT22;2837;50.990;7.124;2022-11-30T18:50:31;9.70;99.90
5631;DHT22;2837;50.990;7.124;2022-11-30T18:52:57;9.70;99.90
5631;DHT22;2837;50.990;7.124;2022-11-30T18:55:24;9.50;99.90
5631;DHT22;2837;50.990;7.124;2022-11-30T18:57:49;9.70;99.90
5631;DHT22;2837;50.990;7.124;2022-11-30T19:00:16;9.70;99.90
5631;DHT22;2837;50.990;7.124;2022-11-30T19:02:46;9.60;99.90
5631;DHT22;2837;50.990;7.124;2022-11-30T19:05:12;9.60;99.90
5631;DHT22;2837;50.990;7.124;2022-11-30T19:08:05;9.60;99.90
5631;DHT22;2837;50.990;7.124;2022-11-30T19:10:33;9.60;99.90
5631;DHT22;2837;50.990;7.124;2022-11-30T19:12:59;9.60;99.90
5631;DHT22;2837;50.990;7.124;2022-11-30T19:15:25;9.60;99.90
5631;DHT22;2837;50.990;7.124;2022-11-30T19:17:50;9.60;99.90
5631;DHT22;2837;50.990;7.124;2022-11-30T19:20:16;9.50;99.90
5631;DHT22;2837;50.990;7.124;2022-11-30T19:22:43;9.50;99.90
5631;DHT22;2837;50.990;7.124;2022-11-30T19:25:08;9.60;99.90
5631;DHT22;2837;50.990;7.124;2022-11-30T19:27:34;9.60;99.90
5631;DHT22;2837;50.990;7.124;2022-11-30T19:30:01;9.50;99.90
5631;DHT22;2837;50.990;7.124;2022-11-30T19:32:26;9.40;99.90
5631;DHT22;2837;50.990;7.124;2022-11-30T19:34:52;9.50;99.90
5631;DHT22;2837;50.990;7.124;2022-11-30T19:37:18;9.40;99.90
5631;DHT22;2837;50.990;7.124;2022-11-30T19:39:43;9.50;99.90
5631;DHT22;2837;50.990;7.124;2022-11-30T19:42:09;9.50;99.90
5631;DHT22;2837;50.990;7.124;2022-11-30T19:44:35;9.50;99.90
5631;DHT22;2837;50.990;7.124;2022-11-30T19:47:01;9.50;99.90
5631;DHT22;2837;50.990;7.124;2022-11-30T19:49:26;9.40;99.90
5631;DHT22;2837;50.990;7.124;2022-11-30T19:51:52;9.50;99.90
5631;DHT22;2837;50.990;7.124;2022-11-30T19:54:17;9.40;99.90
5631;DHT22;2837;50.990;7.124;2022-11-30T19:56:43;9.50;99.90
5631;DHT22;2837;50.990;7.124;2022-11-30T19:59:09;9.50;99.90
5631;DHT22;2837;50.990;7.124;2022-11-30T20:01:34;9.50;99.90
5631;DHT22;2837;50.990;7.124;2022-11-30T20:04:01;9.50;99.90
5631;DHT22;2837;50.990;7.124;2022-11-30T20:06:29;9.40;99.90
5631;DHT22;2837;50.990;7.124;2022-11-30T20:08:55;9.50;99.90
5631;DHT22;2837;50.990;7.124;2022-11-30T20:11:21;9.50;99.90
5631;DHT22;2837;50.990;7.124;2022-11-30T20:13:47;9.50;99.90
5631;DHT22;2837;50.990;7.124;2022-11-30T20:16:17;9.40;99.90
5631;DHT22;2837;50.990;7.124;2022-11-30T20:18:43;9.40;99.90
5631;DHT22;2837;50.990;7.124;2022-11-30T20:21:25;9.50;99.90
5631;DHT22;2837;50.990;7.124;2022-11-30T20:23:53;9.40;99.90
5631;DHT22;2837;50.990;7.124;2022-11-30T20:26:20;9.50;99.90
5631;DHT22;2837;50.990;7.124;2022-11-30T20:28:47;9.50;99.90
5631;DHT22;2837;50.990;7.124;2022-11-30T20:31:15;9.50;99.90
5631;DHT22;2837;50.990;7.124;2022-11-30T20:33:41;9.50;99.90
5631;DHT22;2837;50.990;7.124;2022-11-30T20:36:08;9.50;99.90
5631;DHT22;2837;50.990;7.124;2022-11-30T20:38:34;9.50;99.90
5631;DHT22;2837;50.990;7.124;2022-11-30T20:40:59;9.50;99.90
5631;DHT22;2837;50.990;7.124;2022-11-30T20:43:25;9.50;99.90
5631;DHT22;2837;50.990;7.124;2022-11-30T20:45:51;9.50;99.90
5631;DHT22;2837;50.990;7.124;2022-11-30T20:48:16;9.40;99.90
5631;DHT22;2837;50.990;7.124;2022-11-30T20:50:42;9.40;99.90
5631;DHT22;2837;50.990;7.124;2022-11-30T20:53:08;9.40;99.90
5631;DHT22;2837;50.990;7.124;2022-11-30T20:55:33;9.40;99.90
5631;DHT22;2837;50.990;7.124;2022-11-30T20:57:59;9.40;99.90
5631;DHT22;2837;50.990;7.124;2022-11-30T21:00:24;9.30;99.90
5631;DHT22;2837;50.990;7.124;2022-11-30T21:02:50;9.40;99.90
5631;DHT22;2837;50.990;7.124;2022-11-30T21:05:16;9.40;99.90
5631;DHT22;2837;50.990;7.124;2022-11-30T21:07:44;9.40;99.90
5631;DHT22;2837;50.990;7.124;2022-11-30T21:10:10;9.40;99.90
5631;DHT22;2837;50.990;7.124;2022-11-30T21:12:36;9.30;99.90
5631;DHT22;2837;50.990;7.124;2022-11-30T21:15:02;9.30;99.90
5631;DHT22;2837;50.990;7.124;2022-11-30T21:17:28;9.30;99.90
5631;DHT22;2837;50.990;7.124;2022-11-30T21:19:53;9.30;99.90
5631;DHT22;2837;50.990;7.124;2022-11-30T21:22:19;9.30;99.90
5631;DHT22;2837;50.990;7.124;2022-11-30T21:24:44;9.20;99.90
5631;DHT22;2837;50.990;7.124;2022-11-30T21:27:10;9.30;99.90
5631;DHT22;2837;50.990;7.124;2022-11-30T21:29:35;9.20;99.90
5631;DHT22;2837;50.990;7.124;2022-11-30T21:32:01;9.20;99.90
5631;DHT22;2837;50.990;7.124;2022-11-30T21:34:26;9.10;99.90
5631;DHT22;2837;50.990;7.124;2022-11-30T21:36:52;9.10;99.90
5631;DHT22;2837;50.990;7.124;2022-11-30T21:39:17;9.10;99.90
5631;DHT22;2837;50.990;7.124;2022-11-30T21:41:43;9.00;99.90
5631;DHT22;2837;50.990;7.124;2022-11-30T21:44:11;9.00;99.90
5631;DHT22;2837;50.990;7.124;2022-11-30T21:46:37;9.00;99.90
5631;DHT22;2837;50.990;7.124;2022-11-30T21:49:03;9.10;99.90
5631;DHT22;2837;50.990;7.124;2022-11-30T21:51:30;9.10;99.90
5631;DHT22;2837;50.990;7.124;2022-11-30T21:54:04;9.10;99.90
5631;DHT22;2837;50.990;7.124;2022-11-30T21:56:33;9.20;99.90
5631;DHT22;2837;50.990;7.124;2022-11-30T21:58:58;9.20;99.90
